sensor_id;sensor_type;location;lat;lon;timestamp;P1;durP1;ratioP1;P2;durP2;ratioP2
30000;SDS011;16845;48.670;9.000;2022-12-11T00:02:00;41.92;;;21.45;;
30000;SDS011;16845;48.670;9.000;2022-12-11T00:04:29;45.22;;;23.85;;
30000;SDS011;16845;48.670;9.000;2022-12-11T00:06:58;37.85;;;22.13;;
30000;SDS011;16845;48.670;9.000;2022-12-11T00:09:25;43.13;;;22.45;;
30000;SDS011;16845;48.670;9.000;2022-12-11T00:11:53;42.67;;;21.77;;
30000;SDS011;16845;48.670;9.000;2022-12-11T00:14:21;38.35;;;21.42;;
30000;SDS011;16845;48.670;9.000;2022-12-11T00:16:49;42.50;;;22.02;;
30000;SDS011;16845;48.670;9.000;2022-12-11T00:19:19;39.10;;;20.67;;
30000;SDS011;16845;48.670;9.000;2022-12-11T00:21:47;38.42;;;22.08;;
30000;SDS011;16845;48.670;9.000;2022-12-11T00:24:15;39.33;;;20.85;;
30000;SDS011;16845;48.670;9.000;2022-12-11T00:26:43;35.72;;;20.52;;
30000;SDS011;16845;48.670;9.000;2022-12-11T00:29:11;38.13;;;20.88;;
30000;SDS011;16845;48.670;9.000;2022-12-11T00:31:40;39.20;;;20.83;;
30000;SDS011;16845;48.670;9.000;2022-12-11T00:34:09;35.00;;;19.20;;
30000;SDS011;16845;48.670;9.000;2022-12-11T00:36:38;35.92;;;19.75;;
30000;SDS011;16845;48.670;9.000;2022-12-11T00:39:06;37.03;;;18.92;;
30000;SDS011;16845;48.670;9.000;2022-12-11T00:41:34;34.38;;;19.27;;
30000;SDS011;16845;48.670;9.000;2022-12-11T00:44:02;36.15;;;18.85;;
30000;SDS011;16845;48.670;9.000;2022-12-11T00:46:30;36.00;;;19.52;;
30000;SDS011;16845;48.670;9.000;2022-12-11T00:48:58;43.08;;;21.33;;
30000;SDS011;16845;48.670;9.000;2022-12-11T00:51:26;33.53;;;18.63;;
30000;SDS011;16845;48.670;9.000;2022-12-11T00:53:55;38.65;;;20.10;;
30000;SDS011;16845;48.670;9.000;2022-12-11T00:56:23;38.78;;;21.90;;
30000;SDS011;16845;48.670;9.000;2022-12-11T00:58:51;35.67;;;19.25;;
30000;SDS011;16845;48.670;9.000;2022-12-11T01:01:21;35.35;;;19.27;;
30000;SDS011;16845;48.670;9.000;2022-12-11T01:03:51;40.83;;;22.23;;
30000;SDS011;16845;48.670;9.000;2022-12-11T01:06:20;40.00;;;23.20;;
30000;SDS011;16845;48.670;9.000;2022-12-11T01:08:49;41.80;;;21.20;;
30000;SDS011;16845;48.670;9.000;2022-12-11T01:11:41;39.25;;;20.73;;
30000;SDS011;16845;48.670;9.000;2022-12-11T01:14:08;40.75;;;22.60;;
30000;SDS011;16845;48.670;9.000;2022-12-11T01:16:37;44.67;;;23.10;;
30000;SDS011;16845;48.670;9.000;2022-12-11T01:19:05;37.33;;;21.85;;
30000;SDS011;16845;48.670;9.000;2022-12-11T01:21:33;39.13;;;21.30;;
30000;SDS011;16845;48.670;9.000;2022-12-11T01:24:01;39.13;;;21.15;;
30000;SDS011;16845;48.670;9.000;2022-12-11T01:26:29;40.33;;;23.05;;
30000;SDS011;16845;48.670;9.000;2022-12-11T01:28:58;38.78;;;21.98;;
30000;SDS011;16845;48.670;9.000;2022-12-11T01:31:26;39.20;;;21.33;;
30000;SDS011;16845;48.670;9.000;2022-12-11T01:33:54;43.00;;;21.23;;
30000;SDS011;16845;48.670;9.000;2022-12-11T01:36:23;40.55;;;20.45;;
30000;SDS011;16845;48.670;9.000;2022-12-11T01:38:51;34.08;;;18.85;;
30000;SDS011;16845;48.670;9.000;2022-12-11T01:41:19;37.60;;;20.75;;
30000;SDS011;16845;48.670;9.000;2022-12-11T01:43:59;35.72;;;19.45;;
30000;SDS011;16845;48.670;9.000;2022-12-11T01:46:30;28.83;;;17.23;;
30000;SDS011;16845;48.670;9.000;2022-12-11T01:48:59;28.05;;;16.90;;
30000;SDS011;16845;48.670;9.000;2022-12-11T01:51:30;26.13;;;15.65;;
30000;SDS011;16845;48.670;9.000;2022-12-11T01:54:03;27.67;;;15.75;;
30000;SDS011;16845;48.670;9.000;2022-12-11T01:56:34;27.05;;;14.95;;
30000;SDS011;16845;48.670;9.000;2022-12-11T01:59:05;27.25;;;15.45;;
30000;SDS011;16845;48.670;9.000;2022-12-11T02:01:36;21.08;;;12.35;;
30000;SDS011;16845;48.670;9.000;2022-12-11T02:04:09;23.60;;;14.13;;
30000;SDS011;16845;48.670;9.000;2022-12-11T02:06:39;23.88;;;13.70;;
30000;SDS011;16845;48.670;9.000;2022-12-11T02:09:09;23.75;;;14.27;;
30000;SDS011;16845;48.670;9.000;2022-12-11T02:11:43;26.30;;;15.60;;
30000;SDS011;16845;48.670;9.000;2022-12-11T02:14:22;24.92;;;14.50;;
30000;SDS011;16845;48.670;9.000;2022-12-11T02:16:59;23.90;;;14.63;;
30000;SDS011;16845;48.670;9.000;2022-12-11T02:19:38;23.67;;;15.02;;
30000;SDS011;16845;48.670;9.000;2022-12-11T02:22:16;24.33;;;15.75;;
30000;SDS011;16845;48.670;9.000;2022-12-11T02:24:57;24.92;;;15.00;;
30000;SDS011;16845;48.670;9.000;2022-12-11T02:27:33;27.85;;;16.67;;
30000;SDS011;16845;48.670;9.000;2022-12-11T02:30:08;26.98;;;15.48;;
30000;SDS011;16845;48.670;9.000;2022-12-11T02:32:39;26.45;;;15.43;;
30000;SDS011;16845;48.670;9.000;2022-12-11T02:35:13;28.45;;;15.35;;
30000;SDS011;16845;48.670;9.000;2022-12-11T02:37:45;28.67;;;16.67;;
30000;SDS011;16845;48.670;9.000;2022-12-11T02:40:17;30.58;;;15.90;;
30000;SDS011;16845;48.670;9.000;2022-12-11T02:42:49;22.08;;;13.38;;
30000;SDS011;16845;48.670;9.000;2022-12-11T02:45:19;22.77;;;13.70;;
30000;SDS011;16845;48.670;9.000;2022-12-11T02:47:49;26.08;;;15.10;;
30000;SDS011;16845;48.670;9.000;2022-12-11T02:50:19;22.80;;;14.25;;
30000;SDS011;16845;48.670;9.000;2022-12-11T02:52:50;26.73;;;14.65;;
30000;SDS011;16845;48.670;9.000;2022-12-11T02:55:21;23.25;;;14.00;;
30000;SDS011;16845;48.670;9.000;2022-12-11T02:57:51;30.35;;;16.42;;
30000;SDS011;16845;48.670;9.000;2022-12-11T03:00:27;29.40;;;15.93;;
30000;SDS011;16845;48.670;9.000;2022-12-11T03:02:55;26.17;;;15.07;;
30000;SDS011;16845;48.670;9.000;2022-12-11T03:05:24;31.50;;;15.93;;
30000;SDS011;16845;48.670;9.000;2022-12-11T03:07:53;29.88;;;16.88;;
30000;SDS011;16845;48.670;9.000;2022-12-11T03:10:21;30.73;;;15.52;;
30000;SDS011;16845;48.670;9.000;2022-12-11T03:12:51;30.05;;;17.33;;
30000;SDS011;16845;48.670;9.000;2022-12-11T03:15:21;31.67;;;18.27;;
30000;SDS011;16845;48.670;9.000;2022-12-11T03:17:58;31.70;;;16.70;;
30000;SDS011;16845;48.670;9.000;2022-12-11T03:20:33;31.23;;;16.15;;
30000;SDS011;16845;48.670;9.000;2022-12-11T03:23:08;30.15;;;17.30;;
30000;SDS011;16845;48.670;9.000;2022-12-11T03:25:43;30.90;;;17.30;;
30000;SDS011;16845;48.670;9.000;2022-12-11T03:28:18;38.42;;;19.77;;
30000;SDS011;16845;48.670;9.000;2022-12-11T03:30:50;28.88;;;16.88;;
30000;SDS011;16845;48.670;9.000;2022-12-11T03:33:22;33.72;;;18.90;;
30000;SDS011;16845;48.670;9.000;2022-12-11T03:35:54;30.55;;;16.80;;
30000;SDS011;16845;48.670;9.000;2022-12-11T03:38:28;33.45;;;17.42;;
30000;SDS011;16845;48.670;9.000;2022-12-11T03:41:00;31.38;;;17.05;;
30000;SDS011;16845;48.670;9.000;2022-12-11T03:43:30;25.90;;;15.70;;
30000;SDS011;16845;48.670;9.000;2022-12-11T03:45:59;30.35;;;16.02;;
30000;SDS011;16845;48.670;9.000;2022-12-11T03:48:30;26.70;;;16.10;;
30000;SDS011;16845;48.670;9.000;2022-12-11T03:51:02;26.38;;;15.73;;
30000;SDS011;16845;48.670;9.000;2022-12-11T03:53:32;32.88;;;16.75;;
30000;SDS011;16845;48.670;9.000;2022-12-11T03:56:02;25.35;;;15.70;;
30000;SDS011;16845;48.670;9.000;2022-12-11T03:58:32;27.98;;;15.80;;
30000;SDS011;16845;48.670;9.000;2022-12-11T04:01:00;31.40;;;16.92;;
30000;SDS011;16845;48.670;9.000;2022-12-11T04:03:29;31.35;;;17.27;;
30000;SDS011;16845;48.670;9.000;2022-12-11T04:05:58;27.63;;;16.45;;
30000;SDS011;16845;48.670;9.000;2022-12-11T04:08:25;29.50;;;16.33;;
30000;SDS011;16845;48.670;9.000;2022-12-11T04:10:53;26.17;;;15.88;;
30000;SDS011;16845;48.670;9.000;2022-12-11T04:13:35;28.27;;;17.20;;
30000;SDS011;16845;48.670;9.000;2022-12-11T04:16:04;23.88;;;14.02;;
30000;SDS011;16845;48.670;9.000;2022-12-11T04:18:33;30.10;;;16.30;;
30000;SDS011;16845;48.670;9.000;2022-12-11T04:21:19;29.02;;;17.15;;
30000;SDS011;16845;48.670;9.000;2022-12-11T04:24:05;28.95;;;15.98;;
30000;SDS011;16845;48.670;9.000;2022-12-11T04:26:42;26.67;;;15.27;;
30000;SDS011;16845;48.670;9.000;2022-12-11T04:29:11;30.80;;;16.33;;
30000;SDS011;16845;48.670;9.000;2022-12-11T04:31:40;32.95;;;16.85;;
30000;SDS011;16845;48.670;9.000;2022-12-11T04:34:09;26.13;;;15.00;;
30000;SDS011;16845;48.670;9.000;2022-12-11T04:36:37;29.27;;;15.02;;
30000;SDS011;16845;48.670;9.000;2022-12-11T04:39:05;27.67;;;15.02;;
30000;SDS011;16845;48.670;9.000;2022-12-11T04:41:33;26.98;;;15.82;;
30000;SDS011;16845;48.670;9.000;2022-12-11T04:44:02;27.90;;;15.35;;
30000;SDS011;16845;48.670;9.000;2022-12-11T04:46:30;29.23;;;14.70;;
30000;SDS011;16845;48.670;9.000;2022-12-11T04:48:59;24.85;;;15.25;;
30000;SDS011;16845;48.670;9.000;2022-12-11T04:51:29;27.15;;;15.23;;
30000;SDS011;16845;48.670;9.000;2022-12-11T04:53:57;25.27;;;14.20;;
30000;SDS011;16845;48.670;9.000;2022-12-11T04:56:25;27.38;;;16.17;;
30000;SDS011;16845;48.670;9.000;2022-12-11T04:58:53;27.92;;;14.70;;
30000;SDS011;16845;48.670;9.000;2022-12-11T05:01:21;26.23;;;14.68;;
30000;SDS011;16845;48.670;9.000;2022-12-11T05:03:49;28.20;;;14.77;;
30000;SDS011;16845;48.670;9.000;2022-12-11T05:06:17;29.15;;;16.02;;
30000;SDS011;16845;48.670;9.000;2022-12-11T05:08:47;24.73;;;15.13;;
30000;SDS011;16845;48.670;9.000;2022-12-11T05:11:15;27.20;;;15.00;;
30000;SDS011;16845;48.670;9.000;2022-12-11T05:13:44;27.67;;;14.02;;
30000;SDS011;16845;48.670;9.000;2022-12-11T05:16:13;26.58;;;14.25;;
30000;SDS011;16845;48.670;9.000;2022-12-11T05:18:43;29.05;;;16.17;;
30000;SDS011;16845;48.670;9.000;2022-12-11T05:21:13;29.60;;;15.45;;
30000;SDS011;16845;48.670;9.000;2022-12-11T05:23:41;31.60;;;15.77;;
30000;SDS011;16845;48.670;9.000;2022-12-11T05:26:11;33.70;;;17.30;;
30000;SDS011;16845;48.670;9.000;2022-12-11T05:28:41;28.52;;;15.73;;
30000;SDS011;16845;48.670;9.000;2022-12-11T05:31:11;29.75;;;16.63;;
30000;SDS011;16845;48.670;9.000;2022-12-11T05:33:40;34.63;;;16.88;;
30000;SDS011;16845;48.670;9.000;2022-12-11T05:36:09;33.95;;;17.83;;
30000;SDS011;16845;48.670;9.000;2022-12-11T05:38:42;27.15;;;15.02;;
30000;SDS011;16845;48.670;9.000;2022-12-11T05:41:12;29.23;;;15.43;;
30000;SDS011;16845;48.670;9.000;2022-12-11T05:43:42;32.42;;;16.25;;
30000;SDS011;16845;48.670;9.000;2022-12-11T05:46:11;28.45;;;15.80;;
30000;SDS011;16845;48.670;9.000;2022-12-11T05:48:40;32.17;;;17.80;;
30000;SDS011;16845;48.670;9.000;2022-12-11T05:51:09;35.30;;;18.10;;
30000;SDS011;16845;48.670;9.000;2022-12-11T05:53:37;33.97;;;16.92;;
30000;SDS011;16845;48.670;9.000;2022-12-11T05:56:07;31.15;;;16.85;;
30000;SDS011;16845;48.670;9.000;2022-12-11T05:58:39;36.08;;;17.00;;
30000;SDS011;16845;48.670;9.000;2022-12-11T06:01:09;33.80;;;17.67;;
30000;SDS011;16845;48.670;9.000;2022-12-11T06:03:39;33.78;;;16.67;;
30000;SDS011;16845;48.670;9.000;2022-12-11T06:06:07;35.58;;;17.42;;
30000;SDS011;16845;48.670;9.000;2022-12-11T06:08:35;27.48;;;16.30;;
30000;SDS011;16845;48.670;9.000;2022-12-11T06:11:03;31.25;;;17.45;;
30000;SDS011;16845;48.670;9.000;2022-12-11T06:13:31;29.98;;;16.02;;
30000;SDS011;16845;48.670;9.000;2022-12-11T06:16:01;32.55;;;16.92;;
30000;SDS011;16845;48.670;9.000;2022-12-11T06:18:31;36.97;;;18.90;;
30000;SDS011;16845;48.670;9.000;2022-12-11T06:21:09;30.85;;;17.77;;
30000;SDS011;16845;48.670;9.000;2022-12-11T06:23:38;32.53;;;17.63;;
30000;SDS011;16845;48.670;9.000;2022-12-11T06:26:06;32.55;;;16.65;;
30000;SDS011;16845;48.670;9.000;2022-12-11T06:28:35;29.20;;;16.48;;
30000;SDS011;16845;48.670;9.000;2022-12-11T06:31:04;30.60;;;16.17;;
30000;SDS011;16845;48.670;9.000;2022-12-11T06:33:33;34.25;;;16.48;;
30000;SDS011;16845;48.670;9.000;2022-12-11T06:36:02;33.83;;;18.70;;
30000;SDS011;16845;48.670;9.000;2022-12-11T06:38:31;34.85;;;17.33;;
30000;SDS011;16845;48.670;9.000;2022-12-11T06:41:00;37.70;;;18.02;;
30000;SDS011;16845;48.670;9.000;2022-12-11T06:43:29;44.28;;;19.65;;
30000;SDS011;16845;48.670;9.000;2022-12-11T06:45:58;37.30;;;18.60;;
30000;SDS011;16845;48.670;9.000;2022-12-11T06:48:31;34.03;;;16.70;;
30000;SDS011;16845;48.670;9.000;2022-12-11T06:50:59;37.67;;;18.58;;
30000;SDS011;16845;48.670;9.000;2022-12-11T06:53:31;33.40;;;17.20;;
30000;SDS011;16845;48.670;9.000;2022-12-11T06:56:00;35.20;;;16.70;;
30000;SDS011;16845;48.670;9.000;2022-12-11T06:58:30;33.17;;;15.60;;
30000;SDS011;16845;48.670;9.000;2022-12-11T07:00:59;32.08;;;16.05;;
30000;SDS011;16845;48.670;9.000;2022-12-11T07:03:28;31.08;;;15.50;;
30000;SDS011;16845;48.670;9.000;2022-12-11T07:05:59;31.83;;;16.33;;
30000;SDS011;16845;48.670;9.000;2022-12-11T07:08:28;31.98;;;15.68;;
30000;SDS011;16845;48.670;9.000;2022-12-11T07:11:00;30.88;;;15.73;;
30000;SDS011;16845;48.670;9.000;2022-12-11T07:13:30;33.72;;;16.05;;
30000;SDS011;16845;48.670;9.000;2022-12-11T07:15:59;31.85;;;16.35;;
30000;SDS011;16845;48.670;9.000;2022-12-11T07:18:27;33.03;;;16.33;;
30000;SDS011;16845;48.670;9.000;2022-12-11T07:20:56;37.70;;;17.25;;
30000;SDS011;16845;48.670;9.000;2022-12-11T07:23:25;35.33;;;18.48;;
30000;SDS011;16845;48.670;9.000;2022-12-11T07:25:53;35.22;;;17.73;;
30000;SDS011;16845;48.670;9.000;2022-12-11T07:28:22;33.97;;;18.73;;
30000;SDS011;16845;48.670;9.000;2022-12-11T07:30:51;33.95;;;17.50;;
30000;SDS011;16845;48.670;9.000;2022-12-11T07:33:19;35.92;;;18.83;;
30000;SDS011;16845;48.670;9.000;2022-12-11T07:35:47;30.95;;;17.33;;
30000;SDS011;16845;48.670;9.000;2022-12-11T07:38:15;31.67;;;15.95;;
30000;SDS011;16845;48.670;9.000;2022-12-11T07:40:44;31.33;;;16.77;;
30000;SDS011;16845;48.670;9.000;2022-12-11T07:43:12;31.27;;;17.42;;
30000;SDS011;16845;48.670;9.000;2022-12-11T07:45:40;37.00;;;16.83;;
30000;SDS011;16845;48.670;9.000;2022-12-11T07:48:08;30.83;;;17.65;;
30000;SDS011;16845;48.670;9.000;2022-12-11T07:50:37;31.95;;;18.63;;
30000;SDS011;16845;48.670;9.000;2022-12-11T07:53:05;36.78;;;19.35;;
30000;SDS011;16845;48.670;9.000;2022-12-11T07:55:33;33.30;;;17.98;;
30000;SDS011;16845;48.670;9.000;2022-12-11T07:58:03;31.05;;;17.30;;
30000;SDS011;16845;48.670;9.000;2022-12-11T08:00:31;34.60;;;19.73;;
30000;SDS011;16845;48.670;9.000;2022-12-11T08:02:59;30.65;;;18.17;;
30000;SDS011;16845;48.670;9.000;2022-12-11T08:05:27;30.92;;;17.65;;
30000;SDS011;16845;48.670;9.000;2022-12-11T08:07:55;34.83;;;18.42;;
30000;SDS011;16845;48.670;9.000;2022-12-11T08:10:23;33.05;;;18.58;;
30000;SDS011;16845;48.670;9.000;2022-12-11T08:12:51;34.70;;;17.88;;
30000;SDS011;16845;48.670;9.000;2022-12-11T08:15:20;32.00;;;16.98;;
30000;SDS011;16845;48.670;9.000;2022-12-11T08:17:48;29.25;;;16.10;;
30000;SDS011;16845;48.670;9.000;2022-12-11T08:20:16;30.13;;;18.90;;
30000;SDS011;16845;48.670;9.000;2022-12-11T08:22:44;33.88;;;16.60;;
30000;SDS011;16845;48.670;9.000;2022-12-11T08:25:12;29.20;;;17.23;;
30000;SDS011;16845;48.670;9.000;2022-12-11T08:27:40;31.25;;;18.13;;
30000;SDS011;16845;48.670;9.000;2022-12-11T08:30:08;26.05;;;14.60;;
30000;SDS011;16845;48.670;9.000;2022-12-11T08:32:38;26.98;;;14.30;;
30000;SDS011;16845;48.670;9.000;2022-12-11T08:35:07;27.02;;;14.45;;
30000;SDS011;16845;48.670;9.000;2022-12-11T08:37:35;30.25;;;14.55;;
30000;SDS011;16845;48.670;9.000;2022-12-11T08:40:04;31.95;;;15.15;;
30000;SDS011;16845;48.670;9.000;2022-12-11T08:42:32;28.33;;;14.68;;
30000;SDS011;16845;48.670;9.000;2022-12-11T08:45:00;27.55;;;15.32;;
30000;SDS011;16845;48.670;9.000;2022-12-11T08:47:28;26.42;;;14.00;;
30000;SDS011;16845;48.670;9.000;2022-12-11T08:49:58;30.67;;;14.57;;
30000;SDS011;16845;48.670;9.000;2022-12-11T08:52:26;28.25;;;14.63;;
30000;SDS011;16845;48.670;9.000;2022-12-11T08:54:54;26.70;;;13.40;;
30000;SDS011;16845;48.670;9.000;2022-12-11T08:57:22;26.77;;;14.10;;
30000;SDS011;16845;48.670;9.000;2022-12-11T08:59:49;24.00;;;13.20;;
30000;SDS011;16845;48.670;9.000;2022-12-11T09:02:17;24.17;;;13.32;;
30000;SDS011;16845;48.670;9.000;2022-12-11T09:04:45;26.73;;;14.45;;
30000;SDS011;16845;48.670;9.000;2022-12-11T09:07:15;31.00;;;14.65;;
30000;SDS011;16845;48.670;9.000;2022-12-11T09:09:43;25.02;;;14.68;;
30000;SDS011;16845;48.670;9.000;2022-12-11T09:12:11;22.42;;;13.32;;
30000;SDS011;16845;48.670;9.000;2022-12-11T09:14:39;30.73;;;15.43;;
30000;SDS011;16845;48.670;9.000;2022-12-11T09:17:07;25.80;;;14.68;;
30000;SDS011;16845;48.670;9.000;2022-12-11T09:19:35;32.28;;;15.45;;
30000;SDS011;16845;48.670;9.000;2022-12-11T09:22:03;26.73;;;15.27;;
30000;SDS011;16845;48.670;9.000;2022-12-11T09:24:32;30.30;;;14.90;;
30000;SDS011;16845;48.670;9.000;2022-12-11T09:27:00;27.02;;;14.07;;
30000;SDS011;16845;48.670;9.000;2022-12-11T09:29:28;24.15;;;13.80;;
30000;SDS011;16845;48.670;9.000;2022-12-11T09:31:56;24.40;;;13.82;;
30000;SDS011;16845;48.670;9.000;2022-12-11T09:34:24;25.95;;;13.65;;
30000;SDS011;16845;48.670;9.000;2022-12-11T09:36:54;25.20;;;15.60;;
30000;SDS011;16845;48.670;9.000;2022-12-11T09:39:22;23.77;;;13.40;;
30000;SDS011;16845;48.670;9.000;2022-12-11T09:41:54;21.70;;;13.32;;
30000;SDS011;16845;48.670;9.000;2022-12-11T09:44:31;24.13;;;12.52;;
30000;SDS011;16845;48.670;9.000;2022-12-11T09:47:08;23.75;;;13.35;;
30000;SDS011;16845;48.670;9.000;2022-12-11T09:49:44;24.63;;;13.20;;
30000;SDS011;16845;48.670;9.000;2022-12-11T09:52:14;21.10;;;12.23;;
30000;SDS011;16845;48.670;9.000;2022-12-11T09:54:47;27.63;;;13.48;;
30000;SDS011;16845;48.670;9.000;2022-12-11T09:57:26;23.25;;;13.50;;
30000;SDS011;16845;48.670;9.000;2022-12-11T10:00:04;24.67;;;13.02;;
30000;SDS011;16845;48.670;9.000;2022-12-11T10:02:42;24.38;;;13.25;;
30000;SDS011;16845;48.670;9.000;2022-12-11T10:05:35;22.98;;;12.90;;
30000;SDS011;16845;48.670;9.000;2022-12-11T10:08:10;20.40;;;12.43;;
30000;SDS011;16845;48.670;9.000;2022-12-11T10:10:45;23.15;;;13.68;;
30000;SDS011;16845;48.670;9.000;2022-12-11T10:13:25;22.70;;;13.25;;
30000;SDS011;16845;48.670;9.000;2022-12-11T10:16:03;22.15;;;13.98;;
30000;SDS011;16845;48.670;9.000;2022-12-11T10:21:07;27.10;;;13.27;;
30000;SDS011;16845;48.670;9.000;2022-12-11T10:23:37;25.05;;;13.35;;
30000;SDS011;16845;48.670;9.000;2022-12-11T10:26:20;25.08;;;15.23;;
30000;SDS011;16845;48.670;9.000;2022-12-11T10:28:50;27.00;;;15.73;;
30000;SDS011;16845;48.670;9.000;2022-12-11T10:31:22;23.75;;;13.75;;
30000;SDS011;16845;48.670;9.000;2022-12-11T10:33:57;23.13;;;13.38;;
30000;SDS011;16845;48.670;9.000;2022-12-11T10:36:27;25.23;;;14.73;;
30000;SDS011;16845;48.670;9.000;2022-12-11T10:38:57;23.83;;;14.13;;
30000;SDS011;16845;48.670;9.000;2022-12-11T10:41:31;23.50;;;13.63;;
30000;SDS011;16845;48.670;9.000;2022-12-11T10:44:12;19.42;;;13.10;;
30000;SDS011;16845;48.670;9.000;2022-12-11T10:46:43;22.98;;;13.85;;
30000;SDS011;16845;48.670;9.000;2022-12-11T10:49:22;20.20;;;12.00;;
30000;SDS011;16845;48.670;9.000;2022-12-11T10:51:51;21.65;;;12.30;;
30000;SDS011;16845;48.670;9.000;2022-12-11T10:54:28;20.55;;;12.07;;
30000;SDS011;16845;48.670;9.000;2022-12-11T10:56:58;20.27;;;11.85;;
30000;SDS011;16845;48.670;9.000;2022-12-11T10:59:31;20.30;;;11.05;;
30000;SDS011;16845;48.670;9.000;2022-12-11T11:02:03;20.60;;;11.77;;
30000;SDS011;16845;48.670;9.000;2022-12-11T11:04:32;21.00;;;11.48;;
30000;SDS011;16845;48.670;9.000;2022-12-11T11:07:07;19.88;;;10.85;;
30000;SDS011;16845;48.670;9.000;2022-12-11T11:09:39;16.02;;;10.55;;
30000;SDS011;16845;48.670;9.000;2022-12-11T11:12:18;31.80;;;14.80;;
30000;SDS011;16845;48.670;9.000;2022-12-11T11:15:01;20.75;;;11.55;;
30000;SDS011;16845;48.670;9.000;2022-12-11T11:17:31;18.98;;;12.05;;
30000;SDS011;16845;48.670;9.000;2022-12-11T11:22:49;20.70;;;11.13;;
30000;SDS011;16845;48.670;9.000;2022-12-11T11:25:20;21.98;;;13.85;;
30000;SDS011;16845;48.670;9.000;2022-12-11T11:27:49;19.38;;;12.32;;
30000;SDS011;16845;48.670;9.000;2022-12-11T11:30:22;22.23;;;11.75;;
30000;SDS011;16845;48.670;9.000;2022-12-11T11:32:51;20.40;;;11.25;;
30000;SDS011;16845;48.670;9.000;2022-12-11T11:35:22;24.30;;;14.23;;
30000;SDS011;16845;48.670;9.000;2022-12-11T11:37:53;21.77;;;13.30;;
30000;SDS011;16845;48.670;9.000;2022-12-11T11:40:27;21.20;;;12.90;;
30000;SDS011;16845;48.670;9.000;2022-12-11T11:43:00;19.92;;;12.38;;
30000;SDS011;16845;48.670;9.000;2022-12-11T11:45:37;21.88;;;13.00;;
30000;SDS011;16845;48.670;9.000;2022-12-11T11:48:12;20.95;;;13.45;;
30000;SDS011;16845;48.670;9.000;2022-12-11T11:50:50;24.52;;;13.68;;
30000;SDS011;16845;48.670;9.000;2022-12-11T11:53:21;25.63;;;12.85;;
30000;SDS011;16845;48.670;9.000;2022-12-11T11:55:57;26.42;;;14.30;;
30000;SDS011;16845;48.670;9.000;2022-12-11T11:58:31;18.00;;;12.23;;
30000;SDS011;16845;48.670;9.000;2022-12-11T12:01:09;22.48;;;13.15;;
30000;SDS011;16845;48.670;9.000;2022-12-11T12:03:41;20.98;;;12.63;;
30000;SDS011;16845;48.670;9.000;2022-12-11T12:06:10;20.33;;;12.25;;
30000;SDS011;16845;48.670;9.000;2022-12-11T12:08:50;20.95;;;11.95;;
30000;SDS011;16845;48.670;9.000;2022-12-11T12:11:27;19.27;;;12.20;;
30000;SDS011;16845;48.670;9.000;2022-12-11T12:14:01;22.05;;;13.43;;
30000;SDS011;16845;48.670;9.000;2022-12-11T12:17:03;23.50;;;13.15;;
30000;SDS011;16845;48.670;9.000;2022-12-11T12:19:45;21.13;;;13.02;;
30000;SDS011;16845;48.670;9.000;2022-12-11T12:22:28;25.27;;;13.23;;
30000;SDS011;16845;48.670;9.000;2022-12-11T12:25:09;27.92;;;14.18;;
30000;SDS011;16845;48.670;9.000;2022-12-11T12:27:45;25.17;;;14.35;;
30000;SDS011;16845;48.670;9.000;2022-12-11T12:30:19;23.85;;;13.35;;
30000;SDS011;16845;48.670;9.000;2022-12-11T12:33:00;25.10;;;14.75;;
30000;SDS011;16845;48.670;9.000;2022-12-11T12:35:39;25.05;;;14.07;;
30000;SDS011;16845;48.670;9.000;2022-12-11T12:38:16;23.90;;;14.38;;
30000;SDS011;16845;48.670;9.000;2022-12-11T12:40:52;21.73;;;13.70;;
30000;SDS011;16845;48.670;9.000;2022-12-11T12:43:31;25.75;;;13.93;;
30000;SDS011;16845;48.670;9.000;2022-12-11T12:46:18;24.35;;;14.80;;
30000;SDS011;16845;48.670;9.000;2022-12-11T12:48:57;24.15;;;12.82;;
30000;SDS011;16845;48.670;9.000;2022-12-11T12:51:25;29.17;;;14.00;;
30000;SDS011;16845;48.670;9.000;2022-12-11T12:53:55;21.75;;;13.68;;
30000;SDS011;16845;48.670;9.000;2022-12-11T12:56:26;24.15;;;13.77;;
30000;SDS011;16845;48.670;9.000;2022-12-11T12:58:57;24.08;;;14.43;;
30000;SDS011;16845;48.670;9.000;2022-12-11T13:01:26;22.73;;;13.60;;
30000;SDS011;16845;48.670;9.000;2022-12-11T13:03:57;27.10;;;14.20;;
30000;SDS011;16845;48.670;9.000;2022-12-11T13:06:28;27.38;;;14.93;;
30000;SDS011;16845;48.670;9.000;2022-12-11T13:09:08;25.98;;;14.20;;
30000;SDS011;16845;48.670;9.000;2022-12-11T13:11:39;22.35;;;13.38;;
30000;SDS011;16845;48.670;9.000;2022-12-11T13:14:20;22.17;;;12.55;;
30000;SDS011;16845;48.670;9.000;2022-12-11T13:17:04;23.40;;;12.90;;
30000;SDS011;16845;48.670;9.000;2022-12-11T13:19:49;17.98;;;10.75;;
30000;SDS011;16845;48.670;9.000;2022-12-11T13:22:23;27.67;;;15.82;;
30000;SDS011;16845;48.670;9.000;2022-12-11T13:24:56;20.77;;;12.68;;
30000;SDS011;16845;48.670;9.000;2022-12-11T13:27:34;19.88;;;11.18;;
30000;SDS011;16845;48.670;9.000;2022-12-11T13:30:05;18.40;;;12.07;;
30000;SDS011;16845;48.670;9.000;2022-12-11T13:32:48;19.98;;;11.77;;
30000;SDS011;16845;48.670;9.000;2022-12-11T13:35:22;21.50;;;11.82;;
30000;SDS011;16845;48.670;9.000;2022-12-11T13:37:51;21.35;;;13.35;;
30000;SDS011;16845;48.670;9.000;2022-12-11T13:40:21;21.60;;;12.98;;
30000;SDS011;16845;48.670;9.000;2022-12-11T13:42:53;21.63;;;13.88;;
30000;SDS011;16845;48.670;9.000;2022-12-11T13:45:25;20.08;;;11.68;;
30000;SDS011;16845;48.670;9.000;2022-12-11T13:47:55;19.25;;;12.18;;
30000;SDS011;16845;48.670;9.000;2022-12-11T13:50:27;25.63;;;13.93;;
30000;SDS011;16845;48.670;9.000;2022-12-11T13:52:58;20.67;;;11.40;;
30000;SDS011;16845;48.670;9.000;2022-12-11T13:55:28;21.98;;;13.82;;
30000;SDS011;16845;48.670;9.000;2022-12-11T13:57:57;22.45;;;13.35;;
30000;SDS011;16845;48.670;9.000;2022-12-11T14:00:26;19.85;;;10.73;;
30000;SDS011;16845;48.670;9.000;2022-12-11T14:02:58;24.45;;;11.45;;
30000;SDS011;16845;48.670;9.000;2022-12-11T14:05:30;32.97;;;11.02;;
30000;SDS011;16845;48.670;9.000;2022-12-11T14:08:01;19.92;;;11.60;;
30000;SDS011;16845;48.670;9.000;2022-12-11T14:10:35;21.20;;;12.38;;
30000;SDS011;16845;48.670;9.000;2022-12-11T14:13:04;18.50;;;12.20;;
30000;SDS011;16845;48.670;9.000;2022-12-11T14:15:37;25.00;;;12.10;;
30000;SDS011;16845;48.670;9.000;2022-12-11T14:18:12;26.40;;;13.07;;
30000;SDS011;16845;48.670;9.000;2022-12-11T14:20:45;16.92;;;10.50;;
30000;SDS011;16845;48.670;9.000;2022-12-11T14:23:21;22.10;;;11.40;;
30000;SDS011;16845;48.670;9.000;2022-12-11T14:25:53;19.98;;;10.98;;
30000;SDS011;16845;48.670;9.000;2022-12-11T14:28:22;23.63;;;11.40;;
30000;SDS011;16845;48.670;9.000;2022-12-11T14:30:54;21.73;;;11.57;;
30000;SDS011;16845;48.670;9.000;2022-12-11T14:33:28;20.17;;;12.05;;
30000;SDS011;16845;48.670;9.000;2022-12-11T14:36:01;25.17;;;11.68;;
30000;SDS011;16845;48.670;9.000;2022-12-11T14:38:31;21.42;;;11.80;;
30000;SDS011;16845;48.670;9.000;2022-12-11T14:41:02;23.42;;;12.70;;
30000;SDS011;16845;48.670;9.000;2022-12-11T14:43:35;25.10;;;13.57;;
30000;SDS011;16845;48.670;9.000;2022-12-11T14:46:08;20.77;;;12.70;;
30000;SDS011;16845;48.670;9.000;2022-12-11T14:48:43;26.13;;;14.45;;
30000;SDS011;16845;48.670;9.000;2022-12-11T14:51:27;25.17;;;13.50;;